createdAt,value
2023-04-28T00:00:48.459Z,148.00
2023-04-28T00:01:48.924Z,147.05
2023-04-28T00:02:48.712Z,148.19
2023-04-28T00:03:48.792Z,149.85
2023-04-28T00:04:48.765Z,149.23
2023-04-28T00:05:48.688Z,146.18
2023-04-28T00:06:48.753Z,147.69
2023-04-28T00:07:48.817Z,148.46
2023-04-28T00:08:48.851Z,148.69
2023-04-28T00:09:48.899Z,148.77
2023-04-28T00:10:48.934Z,149.82
2023-04-28T00:11:48.985Z,148.91
2023-04-28T00:12:49.060Z,150.45
2023-04-28T00:13:49.108Z,148.14
2023-04-28T00:14:49.134Z,148.18
2023-04-28T00:15:49.279Z,148.80
2023-04-28T00:16:49.375Z,149.95
2023-04-28T00:17:49.502Z,148.60
2023-04-28T00:18:49.376Z,148.93
2023-04-28T00:19:49.468Z,149.14
2023-04-28T00:20:49.500Z,149.19
2023-04-28T00:21:49.528Z,148.85
2023-04-28T00:22:49.578Z,150.75
2023-04-28T00:23:49.651Z,149.04
2023-04-28T00:24:49.701Z,149.73
2023-04-28T00:25:49.762Z,148.86
2023-04-28T00:26:49.815Z,149.68
2023-04-28T00:27:49.874Z,149.69
2023-04-28T00:28:49.930Z,149.60
2023-04-28T00:29:49.992Z,149.72
2023-04-28T00:30:50.041Z,150.48
2023-04-28T00:31:50.106Z,150.50
2023-04-28T00:32:50.178Z,149.56
2023-04-28T00:33:50.191Z,151.57
2023-04-28T00:34:50.281Z,149.52
2023-04-28T00:35:50.334Z,149.64
2023-04-28T00:36:50.374Z,150.21
2023-04-28T00:37:50.442Z,149.40
2023-04-28T00:38:50.507Z,149.67
2023-04-28T00:39:50.572Z,151.29
2023-04-28T00:40:50.623Z,150.97
2023-04-28T00:41:50.677Z,150.73
2023-04-28T00:42:50.762Z,150.89
2023-04-28T00:43:50.821Z,151.05
2023-04-28T00:44:50.914Z,151.01
2023-04-28T00:45:50.954Z,150.67
2023-04-28T00:46:51.024Z,151.93
2023-04-28T00:47:51.162Z,150.64
2023-04-28T00:48:51.144Z,151.88
2023-04-28T00:49:51.204Z,152.05
2023-04-28T00:50:51.255Z,151.97
2023-04-28T00:51:51.312Z,152.34
2023-04-28T00:52:51.390Z,150.50
2023-04-28T00:53:51.437Z,151.80
2023-04-28T00:54:51.474Z,152.47
2023-04-28T00:55:51.556Z,151.57
2023-04-28T00:56:51.607Z,151.95
2023-04-28T00:57:51.693Z,152.05
2023-04-28T00:58:51.735Z,152.68
2023-04-28T00:59:51.772Z,153.11
2023-04-28T01:00:51.918Z,151.33
2023-04-28T01:01:51.896Z,152.38
2023-04-28T01:02:52.139Z,153.17
2023-04-28T01:03:52.298Z,151.58
2023-04-28T01:04:52.121Z,153.33
2023-04-28T01:05:52.173Z,154.29
2023-04-28T01:06:52.238Z,152.63
2023-04-28T01:07:52.324Z,152.63
2023-04-28T01:08:52.364Z,153.43
2023-04-28T01:09:52.413Z,153.95
2023-04-28T01:10:52.469Z,153.23
2023-04-28T01:11:52.498Z,153.29
2023-04-28T01:12:52.567Z,153.78
2023-04-28T01:13:52.646Z,153.46
2023-04-28T01:14:52.736Z,153.90
2023-04-28T01:15:52.751Z,153.06
2023-04-28T01:16:52.902Z,153.02
2023-04-28T01:17:52.908Z,155.18
2023-04-28T01:18:52.943Z,153.63
2023-04-28T01:19:52.987Z,153.54
2023-04-28T01:20:53.052Z,155.56
2023-04-28T01:21:53.108Z,155.04
2023-04-28T01:22:53.218Z,155.63
2023-04-28T01:23:53.250Z,152.52
2023-04-28T01:24:53.297Z,153.03
2023-04-28T01:25:53.339Z,154.23
2023-04-28T01:26:53.448Z,155.80
2023-04-28T01:27:53.511Z,153.83
2023-04-28T01:28:53.540Z,153.96
2023-04-28T01:29:53.625Z,153.01
2023-04-28T01:30:53.636Z,154.27
2023-04-28T01:31:53.709Z,154.58
2023-04-28T01:32:53.803Z,155.89
2023-04-28T01:33:53.755Z,152.34
2023-04-28T01:34:53.864Z,156.22
2023-04-28T01:35:53.822Z,153.46
2023-04-28T01:36:53.898Z,156.49
2023-04-28T01:37:53.936Z,154.93
2023-04-28T01:38:53.967Z,155.78
2023-04-28T01:39:53.979Z,154.64
2023-04-28T01:40:54.065Z,155.97
2023-04-28T01:41:54.114Z,155.04
2023-04-28T01:42:54.112Z,155.38
2023-04-28T01:43:54.206Z,156.40
2023-04-28T01:44:54.237Z,154.84
2023-04-28T01:45:54.324Z,154.47
2023-04-28T01:46:54.351Z,154.09
2023-04-28T01:47:54.387Z,156.24
2023-04-28T01:48:54.415Z,154.80
2023-04-28T01:49:54.394Z,154.55
2023-04-28T01:50:54.483Z,155.17
2023-04-28T01:51:54.471Z,155.64
2023-04-28T01:52:54.505Z,155.58
2023-04-28T01:53:54.550Z,156.17
2023-04-28T01:54:54.563Z,155.03
2023-04-28T01:55:54.561Z,154.15
2023-04-28T01:56:54.580Z,155.86
2023-04-28T01:57:54.577Z,156.10
2023-04-28T01:58:54.637Z,155.48
2023-04-28T01:59:54.677Z,156.26
2023-04-28T02:00:54.699Z,155.88
2023-04-28T02:01:54.724Z,155.64
2023-04-28T02:02:54.803Z,154.44
2023-04-28T02:03:54.955Z,154.37
2023-04-28T02:04:54.879Z,154.31
2023-04-28T02:05:54.735Z,156.36
2023-04-28T02:06:54.762Z,153.36
2023-04-28T02:07:54.782Z,155.60
2023-04-28T02:08:54.818Z,157.59
2023-04-28T02:09:54.785Z,156.73
2023-04-28T02:10:54.917Z,154.97
2023-04-28T02:11:54.837Z,155.61
2023-04-28T02:12:54.835Z,157.45
2023-04-28T02:13:54.811Z,156.27
2023-04-28T02:14:54.794Z,155.09
2023-04-28T02:15:54.829Z,157.21
2023-04-28T02:16:54.805Z,158.44
2023-04-28T02:17:54.833Z,157.13
2023-04-28T02:18:54.826Z,154.02
2023-04-28T02:19:54.805Z,156.53
2023-04-28T02:20:54.799Z,157.69
2023-04-28T02:21:54.848Z,157.02
2023-04-28T02:22:54.853Z,156.40
2023-04-28T02:23:54.812Z,155.72
2023-04-28T02:24:54.810Z,155.66
2023-04-28T02:25:54.827Z,157.04
2023-04-28T02:26:54.830Z,156.59
2023-04-28T02:27:54.823Z,156.58
2023-04-28T02:28:54.827Z,155.56
2023-04-28T02:29:54.786Z,159.01
2023-04-28T02:30:54.798Z,157.17
2023-04-28T02:31:54.844Z,156.67
2023-04-28T02:32:54.907Z,154.92
2023-04-28T02:33:54.897Z,157.78
2023-04-28T02:34:54.873Z,157.73
2023-04-28T02:35:54.826Z,157.39
2023-04-28T02:36:54.830Z,159.30
2023-04-28T02:37:54.851Z,157.22
2023-04-28T02:38:54.826Z,157.15
2023-04-28T02:39:54.825Z,157.22
2023-04-28T02:40:54.818Z,157.65
2023-04-28T02:41:54.834Z,156.51
2023-04-28T02:42:54.837Z,157.30
2023-04-28T02:43:54.847Z,157.06
2023-04-28T02:44:54.834Z,159.78
2023-04-28T02:45:54.830Z,158.74
2023-04-28T02:46:54.823Z,156.85
2023-04-28T02:47:54.834Z,157.70
2023-04-28T02:48:54.790Z,158.19
2023-04-28T02:49:54.802Z,157.88
2023-04-28T02:50:54.784Z,156.65
2023-04-28T02:51:54.794Z,156.59
2023-04-28T02:52:54.780Z,159.97
2023-04-28T02:53:54.784Z,157.27
2023-04-28T02:54:54.800Z,157.98
2023-04-28T02:55:54.792Z,157.40
2023-04-28T02:56:54.778Z,156.60
2023-04-28T02:57:54.779Z,156.58
2023-04-28T02:58:54.796Z,156.34
2023-04-28T02:59:54.799Z,157.87
2023-04-28T03:00:54.774Z,159.33
2023-04-28T03:01:54.776Z,156.20
2023-04-28T03:02:54.951Z,157.61
2023-04-28T03:03:54.972Z,157.14
2023-04-28T03:04:54.780Z,157.01
2023-04-28T03:05:54.746Z,159.28
2023-04-28T03:06:54.736Z,158.41
2023-04-28T03:07:54.748Z,158.70
2023-04-28T03:08:54.789Z,159.33
2023-04-28T03:09:54.754Z,159.95
2023-04-28T03:10:54.773Z,158.27
2023-04-28T03:11:54.780Z,160.27
2023-04-28T03:12:54.746Z,160.82
2023-04-28T03:13:54.740Z,158.28
2023-04-28T03:14:54.751Z,161.17
2023-04-28T03:15:54.730Z,159.02
2023-04-28T03:16:54.731Z,159.05
2023-04-28T03:17:54.874Z,159.77
2023-04-28T03:18:54.756Z,156.39
2023-04-28T03:19:54.750Z,159.75
2023-04-28T03:20:54.761Z,158.74
2023-04-28T03:21:54.737Z,158.79
2023-04-28T03:22:54.746Z,159.62
2023-04-28T03:23:54.758Z,159.57
2023-04-28T03:24:54.736Z,158.86
2023-04-28T03:25:54.732Z,160.36
2023-04-28T03:26:54.734Z,158.72
2023-04-28T03:27:54.733Z,156.88
2023-04-28T03:28:54.743Z,158.90
2023-04-28T03:29:54.752Z,158.87
2023-04-28T03:30:54.732Z,155.50
2023-04-28T03:31:54.760Z,160.39
2023-04-28T03:32:54.798Z,158.81
2023-04-28T03:33:54.752Z,159.59
2023-04-28T03:34:54.764Z,158.47
2023-04-28T03:35:54.798Z,159.63
2023-04-28T03:36:54.744Z,158.47
2023-04-28T03:37:54.743Z,159.73
2023-04-28T03:38:54.757Z,158.86
2023-04-28T03:39:54.757Z,159.91
2023-04-28T03:40:54.768Z,159.22
2023-04-28T03:41:54.807Z,159.75
2023-04-28T03:42:54.783Z,160.81
2023-04-28T03:43:54.791Z,157.91
2023-04-28T03:44:54.789Z,157.08
2023-04-28T03:45:54.808Z,159.47
2023-04-28T03:46:54.821Z,161.79
2023-04-28T03:47:54.799Z,159.01
2023-04-28T03:48:54.773Z,161.74
2023-04-28T03:49:54.797Z,160.34
2023-04-28T03:50:54.797Z,157.89
2023-04-28T03:51:54.819Z,159.92
2023-04-28T03:52:54.814Z,161.93
2023-04-28T03:53:54.825Z,161.57
2023-04-28T03:54:54.815Z,160.49
2023-04-28T03:55:54.803Z,162.03
2023-04-28T03:56:54.952Z,159.25
2023-04-28T03:57:54.832Z,159.32
2023-04-28T03:58:54.822Z,160.88
2023-04-28T03:59:54.837Z,160.70
2023-04-28T04:00:54.836Z,159.87
2023-04-28T04:01:54.834Z,160.62
2023-04-28T04:02:54.934Z,159.38
2023-04-28T04:03:55.035Z,159.29
2023-04-28T04:04:55.050Z,161.37
2023-04-28T04:05:54.865Z,160.47
2023-04-28T04:06:55.016Z,159.58
2023-04-28T04:07:54.904Z,160.78
2023-04-28T04:08:54.877Z,159.06
2023-04-28T04:09:54.967Z,159.50
2023-04-28T04:10:55.030Z,158.71
2023-04-28T04:11:54.929Z,159.47
2023-04-28T04:12:54.940Z,157.70
2023-04-28T04:13:54.956Z,159.82
2023-04-28T04:14:55.012Z,160.60
2023-04-28T04:15:55.020Z,157.77
2023-04-28T04:16:55.010Z,159.19
2023-04-28T04:17:55.059Z,157.66
2023-04-28T04:18:55.030Z,155.51
2023-04-28T04:19:55.033Z,155.90
2023-04-28T04:20:55.032Z,158.07
2023-04-28T04:21:55.091Z,156.69
2023-04-28T04:22:55.085Z,153.62
2023-04-28T04:23:55.109Z,154.73
2023-04-28T04:24:55.143Z,153.55
2023-04-28T04:25:55.109Z,151.78
2023-04-28T04:26:55.137Z,152.42
2023-04-28T04:27:55.124Z,153.14
2023-04-28T04:30:13.968Z,25.00
2023-04-28T04:31:13.985Z,25.00
2023-04-28T04:32:13.957Z,25.00
2023-04-28T04:33:13.985Z,25.00
2023-04-28T04:34:14.097Z,25.00
2023-04-28T04:35:13.934Z,25.56
2023-04-28T04:36:13.949Z,25.00
2023-04-28T04:37:13.881Z,27.75
2023-04-28T04:38:13.905Z,25.51
2023-04-28T04:39:13.857Z,25.00
2023-04-28T04:40:13.909Z,30.15
2023-04-28T04:41:13.896Z,30.26
2023-04-28T04:42:24.070Z,25.97
2023-04-28T04:43:14.846Z,26.36
2023-04-28T04:44:14.340Z,26.70
2023-04-28T04:45:13.826Z,28.13
2023-04-28T04:46:13.879Z,28.47
2023-04-28T04:47:13.815Z,29.11
2023-04-28T04:48:13.895Z,27.36
2023-04-28T04:49:13.828Z,28.37
2023-04-28T04:50:13.787Z,31.88
2023-04-28T04:51:13.803Z,29.41
2023-04-28T04:52:13.795Z,26.56
2023-04-28T04:53:16.040Z,29.57
2023-04-28T04:54:13.804Z,30.61
2023-04-28T04:55:13.770Z,31.05
2023-04-28T04:56:13.876Z,26.84
2023-04-28T04:57:13.742Z,28.94
2023-04-28T04:58:13.776Z,29.83
2023-04-28T04:59:13.740Z,30.86
2023-04-28T05:00:13.752Z,30.48
2023-04-28T05:01:13.708Z,28.81
2023-04-28T05:02:13.786Z,30.18
2023-04-28T05:03:13.843Z,27.96
2023-04-28T05:04:13.842Z,30.22
2023-04-28T05:06:14.704Z,31.97
2023-04-28T05:07:13.690Z,32.10
2023-04-28T05:08:13.725Z,32.22
2023-04-28T05:09:13.652Z,31.71
2023-04-28T05:10:13.684Z,34.45
2023-04-28T05:11:13.670Z,32.02
2023-04-28T05:12:13.657Z,31.62
2023-04-28T05:13:13.659Z,29.11
2023-04-28T05:14:13.826Z,30.27
2023-04-28T05:15:13.627Z,28.91
2023-04-28T05:16:13.652Z,23.36
2023-04-28T05:17:13.605Z,25.68
2023-04-28T05:18:13.675Z,25.61
2023-04-28T05:19:13.599Z,24.34
2023-04-28T05:20:13.636Z,23.25
2023-04-28T05:21:13.596Z,27.39
2023-04-28T05:22:13.584Z,28.11
2023-04-28T05:23:13.595Z,24.80
2023-04-28T05:24:13.598Z,28.40
2023-04-28T05:25:13.598Z,25.00
2023-04-28T05:26:13.610Z,25.44
2023-04-28T05:27:13.560Z,26.61
2023-04-28T05:28:13.591Z,25.00
2023-04-28T05:29:13.626Z,27.13
2023-04-28T05:30:13.642Z,25.00
2023-04-28T05:31:13.647Z,28.60
2023-04-28T05:32:13.838Z,23.89
2023-04-28T05:33:13.725Z,27.15
2023-04-28T05:34:13.888Z,26.54
2023-04-28T05:35:13.823Z,27.78
2023-04-28T05:36:13.820Z,26.35
2023-04-28T05:37:13.803Z,26.49
2023-04-28T05:38:13.829Z,32.55
2023-04-28T05:39:13.871Z,32.98
2023-04-28T05:40:13.911Z,34.00
2023-04-28T05:41:13.942Z,35.63
2023-04-28T05:42:14.034Z,56.53
2023-04-28T05:43:14.097Z,55.18
2023-04-28T05:44:14.172Z,58.80
2023-04-28T05:45:14.140Z,58.10
2023-04-28T05:46:26.071Z,60.91
2023-04-28T05:47:15.191Z,60.94
2023-04-28T05:48:14.183Z,59.28
2023-04-28T05:49:14.174Z,56.62
2023-04-28T05:50:14.128Z,69.09
2023-04-28T05:51:14.159Z,75.66
2023-04-28T05:52:14.154Z,72.27
2023-04-28T05:53:14.135Z,65.54
2023-04-28T05:54:14.278Z,62.58
2023-04-28T05:55:14.131Z,53.15
2023-04-28T05:56:14.123Z,60.37
2023-04-28T05:57:14.088Z,63.10
2023-04-28T05:58:14.101Z,62.80
2023-04-28T05:59:14.431Z,72.85
2023-04-28T06:00:14.173Z,78.96
2023-04-28T06:01:14.198Z,86.82
2023-04-28T06:02:14.208Z,91.82
2023-04-28T06:03:14.332Z,94.48
2023-04-28T06:04:14.458Z,101.32
2023-04-28T06:05:14.317Z,103.82
2023-04-28T06:06:14.302Z,109.22
2023-04-28T06:07:14.321Z,112.52
2023-04-28T06:08:14.364Z,120.82
2023-04-28T06:09:14.639Z,120.38
2023-04-28T06:10:14.445Z,125.82
2023-04-28T06:11:14.498Z,133.66
2023-04-28T06:12:14.571Z,138.84
2023-04-28T06:13:14.908Z,143.98
2023-04-28T06:14:14.791Z,143.19
2023-04-28T06:15:14.750Z,146.26
2023-04-28T06:16:14.835Z,146.39
2023-04-28T06:17:14.800Z,148.53
2023-04-28T06:18:14.838Z,148.17
2023-04-28T06:19:17.578Z,159.32
2023-04-28T06:20:15.956Z,161.26
2023-04-28T06:21:14.863Z,169.31
2023-04-28T06:22:14.994Z,168.64
2023-04-28T06:23:14.866Z,169.92
2023-04-28T06:24:15.065Z,170.89
2023-04-28T06:25:14.862Z,157.04
2023-04-28T06:26:16.850Z,165.07
2023-04-28T06:27:14.964Z,165.43
2023-04-28T06:28:14.864Z,166.71
2023-04-28T06:29:14.820Z,171.38
2023-04-28T06:30:16.957Z,178.70
2023-04-28T06:31:15.115Z,166.20
2023-04-28T06:32:14.830Z,170.41
2023-04-28T06:33:14.805Z,176.71
2023-04-28T06:34:15.132Z,192.46
2023-04-28T06:35:14.753Z,208.72
2023-04-28T06:36:14.793Z,215.15
2023-04-28T06:37:14.788Z,217.41
2023-04-28T06:38:14.727Z,225.17
2023-04-28T06:39:14.786Z,227.70
2023-04-28T06:40:14.770Z,232.17
2023-04-28T06:41:14.767Z,235.22
2023-04-28T06:42:14.745Z,242.99
2023-04-28T06:43:14.783Z,248.18
2023-04-28T06:44:15.019Z,246.47
2023-04-28T06:45:14.731Z,246.77
2023-04-28T06:46:15.701Z,247.25
2023-04-28T06:47:14.745Z,250.00
2023-04-28T06:48:14.751Z,249.66
2023-04-28T06:49:14.800Z,249.05
2023-04-28T06:50:14.900Z,250.00
2023-04-28T06:51:14.899Z,250.00
2023-04-28T06:52:14.993Z,249.39
2023-04-28T06:53:15.025Z,249.27
2023-04-28T06:54:15.316Z,249.96
2023-04-28T06:55:15.203Z,247.51
2023-04-28T06:56:15.212Z,249.86
2023-04-28T06:57:15.242Z,250.00
2023-04-28T06:58:15.284Z,249.73
2023-04-28T06:59:15.554Z,248.65
2023-04-28T07:00:15.390Z,248.12
2023-04-28T07:01:15.477Z,250.45
2023-04-28T07:02:15.484Z,249.48
2023-04-28T07:03:15.647Z,250.00
2023-04-28T07:04:15.948Z,249.80
2023-04-28T07:05:16.472Z,250.13
2023-04-28T07:06:15.613Z,250.00
2023-04-28T07:07:15.651Z,248.70
2023-04-28T07:08:15.684Z,248.86
2023-04-28T07:09:16.366Z,249.91
2023-04-28T07:10:15.866Z,248.55
2023-04-28T07:11:15.805Z,248.80
2023-04-28T07:12:15.837Z,248.57
2023-04-28T07:13:16.100Z,250.00
2023-04-28T07:14:16.160Z,249.77
2023-04-28T07:15:15.950Z,249.44
2023-04-28T07:16:15.988Z,248.56
2023-04-28T07:17:16.010Z,247.66
2023-04-28T07:18:16.139Z,249.67
2023-04-28T07:19:16.007Z,248.10
2023-04-28T07:20:16.033Z,248.33
2023-04-28T07:21:16.160Z,247.35
2023-04-28T07:22:16.051Z,247.36
2023-04-28T07:23:16.159Z,250.00
2023-04-28T07:24:16.259Z,250.00
2023-04-28T07:25:16.065Z,246.62
2023-04-28T07:26:16.066Z,242.62
2023-04-28T07:27:16.237Z,237.79
2023-04-28T07:28:16.097Z,231.93
2023-04-28T07:29:16.122Z,235.26
2023-04-28T07:30:27.295Z,228.17
2023-04-28T07:31:17.154Z,226.76
2023-04-28T07:32:16.262Z,224.59
2023-04-28T07:33:16.105Z,203.48
2023-04-28T07:34:16.405Z,208.50
2023-04-28T07:35:16.714Z,208.46
2023-04-28T07:36:16.099Z,207.64
2023-04-28T07:37:16.072Z,203.00
2023-04-28T07:38:16.048Z,198.97
2023-04-28T07:39:16.053Z,194.44
2023-04-28T07:40:16.079Z,186.73
2023-04-28T07:41:16.023Z,181.77
2023-04-28T07:42:16.071Z,177.81
2023-04-28T07:43:16.005Z,169.89
2023-04-28T07:44:16.321Z,166.33
2023-04-28T07:45:16.028Z,163.51
2023-04-28T07:46:16.160Z,162.49
2023-04-28T07:47:16.138Z,158.80
2023-04-28T07:48:16.290Z,154.40
2023-04-28T07:49:16.190Z,149.73
2023-04-28T07:50:16.219Z,150.13
2023-04-28T07:51:16.229Z,143.19
2023-04-28T07:52:16.211Z,138.53
2023-04-28T07:53:16.241Z,133.78
2023-04-28T07:54:16.432Z,121.68
2023-04-28T07:55:16.266Z,116.20
2023-04-28T07:56:16.226Z,117.57
2023-04-28T07:57:16.202Z,115.35
2023-04-28T07:58:16.215Z,112.67
2023-04-28T07:59:16.279Z,108.11
2023-04-28T08:00:16.747Z,103.46
2023-04-28T08:01:16.341Z,100.29
2023-04-28T08:02:16.460Z,97.78
2023-04-28T08:03:16.676Z,96.89
2023-04-28T08:04:16.818Z,93.41
2023-04-28T08:05:16.748Z,93.92
2023-04-28T08:06:16.596Z,93.21
2023-04-28T08:07:16.638Z,87.90
2023-04-28T08:08:16.688Z,88.86
2023-04-28T08:09:16.764Z,88.17
2023-04-28T08:10:17.242Z,85.51
2023-04-28T08:11:17.219Z,83.22
2023-04-28T08:12:16.910Z,80.43
2023-04-28T08:13:16.930Z,77.27
2023-04-28T08:14:17.142Z,76.78
2023-04-28T08:15:18.367Z,76.07
2023-04-28T08:16:17.115Z,72.07
2023-04-28T08:17:17.096Z,67.71
2023-04-28T08:18:17.170Z,65.99
2023-04-28T08:19:17.185Z,62.94
2023-04-28T08:20:17.260Z,60.25
2023-04-28T08:21:17.282Z,61.14
2023-04-28T08:22:17.369Z,56.67
2023-04-28T08:23:17.399Z,47.67
2023-04-28T08:24:17.521Z,45.81
2023-04-28T08:25:17.545Z,51.41
2023-04-28T08:26:17.589Z,50.82
2023-04-28T08:27:17.594Z,46.46
2023-04-28T08:28:17.671Z,36.26
2023-04-28T08:29:17.691Z,29.11
2023-04-28T08:30:18.224Z,29.09
2023-04-28T08:31:17.855Z,28.66
2023-04-28T08:32:17.832Z,25.04
2023-04-28T08:33:17.905Z,25.59
2023-04-28T08:34:18.106Z,26.17
2023-04-28T08:35:17.857Z,25.75
2023-04-28T08:36:17.873Z,26.17
2023-04-28T08:37:17.919Z,25.16
2023-04-28T08:38:17.999Z,25.30
2023-04-28T08:39:17.909Z,27.75
2023-04-28T08:40:17.965Z,24.73
2023-04-28T08:41:18.047Z,25.00
2023-04-28T08:42:18.003Z,25.52
2023-04-28T08:43:18.071Z,29.05
2023-04-28T08:44:18.347Z,29.82
2023-04-28T08:45:18.046Z,31.80
2023-04-28T08:46:18.054Z,32.61
2023-04-28T08:47:18.056Z,27.84
2023-04-28T08:48:18.055Z,29.58
2023-04-28T08:49:18.068Z,27.67
2023-04-28T08:50:18.057Z,27.41
2023-04-28T08:51:18.043Z,26.03
2023-04-28T08:52:18.050Z,28.52
2023-04-28T08:53:18.074Z,26.42
2023-04-28T08:54:29.838Z,25.63
2023-04-28T08:55:19.038Z,25.70
2023-04-28T08:56:18.115Z,25.77
2023-04-28T08:57:17.997Z,26.06
2023-04-28T08:58:18.019Z,26.87
2023-04-28T08:59:18.030Z,27.20
2023-04-28T09:00:17.984Z,29.98
2023-04-28T09:01:18.051Z,31.24
2023-04-28T09:02:18.108Z,28.76
2023-04-28T09:03:18.239Z,28.99
2023-04-28T09:04:18.604Z,27.91
2023-04-28T09:05:18.238Z,27.48
2023-04-28T09:06:18.314Z,28.21
2023-04-28T09:07:17.945Z,29.37
2023-04-28T09:08:18.011Z,30.26
2023-04-28T09:09:17.911Z,33.20
2023-04-28T09:10:17.948Z,35.41
2023-04-28T09:11:17.959Z,36.28
2023-04-28T09:12:17.915Z,37.35
2023-04-28T09:13:17.910Z,39.15
2023-04-28T09:14:18.273Z,36.00
2023-04-28T09:15:17.994Z,34.33
2023-04-28T09:16:18.086Z,34.81
2023-04-28T09:17:18.115Z,35.54
2023-04-28T09:18:18.124Z,33.34
2023-04-28T09:19:18.167Z,36.12
2023-04-28T09:20:18.286Z,37.50
2023-04-28T09:21:18.268Z,38.90
2023-04-28T09:22:26.718Z,40.14
2023-04-28T09:23:19.320Z,40.17
2023-04-28T09:24:18.479Z,40.19
2023-04-28T09:25:18.299Z,41.26
2023-04-28T09:26:18.278Z,40.85
2023-04-28T09:27:18.317Z,43.34
2023-04-28T09:28:18.285Z,44.73
2023-04-28T09:29:18.250Z,38.36
2023-04-28T09:30:18.411Z,38.73
2023-04-28T09:31:18.305Z,42.85
2023-04-28T09:32:18.432Z,42.59
2023-04-28T09:33:18.295Z,47.50
2023-04-28T09:34:18.301Z,50.08
2023-04-28T09:35:18.273Z,51.80
2023-04-28T09:36:18.232Z,53.25
2023-04-28T09:37:18.237Z,54.99
2023-04-28T09:38:18.259Z,68.10
2023-04-28T09:39:18.200Z,80.14
2023-04-28T09:40:18.217Z,86.89
2023-04-28T09:41:18.325Z,95.51
2023-04-28T09:42:18.327Z,105.53
2023-04-28T09:43:21.865Z,105.81
2023-04-28T09:44:18.448Z,106.04
2023-04-28T09:45:18.764Z,108.72
2023-04-28T09:46:18.344Z,116.06
2023-04-28T09:47:18.284Z,128.22
2023-04-28T09:48:18.277Z,148.98
2023-04-28T09:49:18.307Z,156.37
2023-04-28T09:50:19.782Z,161.66
2023-04-28T09:51:18.242Z,164.39
2023-04-28T09:52:18.245Z,169.56
2023-04-28T09:53:18.227Z,175.23
2023-04-28T09:54:18.315Z,178.77
2023-04-28T09:55:18.246Z,182.69
2023-04-28T09:56:18.197Z,186.70
2023-04-28T09:57:18.230Z,189.98
2023-04-28T09:58:18.285Z,192.58
2023-04-28T09:59:18.358Z,195.73
2023-04-28T10:00:18.208Z,199.64
2023-04-28T10:01:18.205Z,202.50
2023-04-28T10:02:42.081Z,207.00
2023-04-28T10:03:21.200Z,207.28
2023-04-28T10:04:18.268Z,207.53
2023-04-28T10:05:18.352Z,208.88
2023-04-28T10:06:18.149Z,210.93
2023-04-28T10:07:18.190Z,215.58
2023-04-28T10:08:18.159Z,222.50
2023-04-28T10:09:18.152Z,227.24
2023-04-28T10:10:18.170Z,227.00
2023-04-28T10:11:18.130Z,229.96
2023-04-28T10:12:18.103Z,232.73
2023-04-28T10:13:18.192Z,234.86
2023-04-28T10:14:18.088Z,238.02
2023-04-28T10:15:18.134Z,243.30
2023-04-28T10:16:18.160Z,246.24
2023-04-28T10:17:18.099Z,249.02
2023-04-28T10:18:18.117Z,248.35
2023-04-28T10:19:18.064Z,250.00
2023-04-28T10:20:18.074Z,247.94
2023-04-28T10:21:18.083Z,249.56
2023-04-28T10:22:18.037Z,247.88
2023-04-28T10:23:18.045Z,248.34
2023-04-28T10:24:18.050Z,250.00
2023-04-28T10:25:18.030Z,250.18
2023-04-28T10:26:18.049Z,248.73
2023-04-28T10:27:18.015Z,250.00
2023-04-28T10:28:18.033Z,249.53
2023-04-28T10:29:18.069Z,249.24
2023-04-28T10:30:27.615Z,249.86
2023-04-28T10:31:19.131Z,250.12
2023-04-28T10:32:18.078Z,251.46
2023-04-28T10:33:18.086Z,254.50
2023-04-28T10:34:18.064Z,257.98
2023-04-28T10:35:18.061Z,227.21
2023-04-28T10:36:24.091Z,200.03
2023-04-28T10:37:19.274Z,200.14
2023-04-28T10:38:18.290Z,188.14
2023-04-28T10:39:18.062Z,173.98
2023-04-28T10:40:18.256Z,159.49
2023-04-28T10:41:18.281Z,146.41
2023-04-28T10:42:18.058Z,143.02
2023-04-28T10:43:18.022Z,134.76
2023-04-28T10:44:18.025Z,127.48
2023-04-28T10:45:17.993Z,115.55
2023-04-28T10:46:18.021Z,96.19
2023-04-28T10:47:17.974Z,97.19
2023-04-28T10:48:17.981Z,105.13
2023-04-28T10:49:17.950Z,110.52
2023-04-28T10:50:20.088Z,113.76
2023-04-28T10:51:18.289Z,113.87
2023-04-28T10:52:17.974Z,114.83
2023-04-28T10:53:17.990Z,117.64
2023-04-28T10:54:17.968Z,123.07
2023-04-28T10:55:22.174Z,128.25
2023-04-28T10:56:17.927Z,114.34
2023-04-28T10:57:17.920Z,116.62
2023-04-28T10:58:17.901Z,119.78
2023-04-28T10:59:17.961Z,127.67
2023-04-28T11:00:17.939Z,134.80
2023-04-28T11:01:17.940Z,132.77
2023-04-28T11:02:17.968Z,129.81
2023-04-28T11:03:17.954Z,129.37
2023-04-28T11:04:18.187Z,126.71
2023-04-28T11:05:17.930Z,124.94
2023-04-28T11:06:17.887Z,124.10
2023-04-28T11:07:17.832Z,129.25
2023-04-28T11:08:17.833Z,129.41
2023-04-28T11:09:17.867Z,132.13
2023-04-28T11:10:17.822Z,128.10
2023-04-28T11:11:17.873Z,127.80
2023-04-28T11:12:17.831Z,130.32
2023-04-28T11:13:18.295Z,131.47
2023-04-28T11:14:17.810Z,125.26
2023-04-28T11:15:17.791Z,129.87
2023-04-28T11:16:17.981Z,132.70
2023-04-28T11:17:17.812Z,131.05
2023-04-28T11:18:17.816Z,130.89
2023-04-28T11:19:17.820Z,134.38
2023-04-28T11:20:17.863Z,135.22
2023-04-28T11:21:18.304Z,131.82
2023-04-28T11:22:17.965Z,130.98
2023-04-28T11:23:17.978Z,130.45
2023-04-28T11:24:18.007Z,132.67
2023-04-28T11:25:18.042Z,131.64
2023-04-28T11:26:18.073Z,131.39
2023-04-28T11:27:18.106Z,130.64
2023-04-28T11:28:18.150Z,131.56
2023-04-28T11:29:18.192Z,129.64
2023-04-28T11:30:18.212Z,129.79
2023-04-28T11:31:18.340Z,126.47
2023-04-28T11:32:18.280Z,125.52
2023-04-28T11:33:18.282Z,123.09
2023-04-28T11:34:18.331Z,122.25
2023-04-28T11:35:18.358Z,120.04
2023-04-28T11:36:18.368Z,119.15
2023-04-28T11:37:18.633Z,119.58
2023-04-28T11:38:18.455Z,118.30
2023-04-28T11:39:18.497Z,117.04
2023-04-28T11:40:18.495Z,117.02
2023-04-28T11:41:18.587Z,115.40
2023-04-28T11:42:25.515Z,118.19
2023-04-28T11:43:18.592Z,118.40
2023-04-28T11:44:18.674Z,118.97
2023-04-28T11:45:18.533Z,120.12
2023-04-28T11:46:18.626Z,122.46
2023-04-28T11:47:18.519Z,125.44
2023-04-28T11:48:18.556Z,127.66
2023-04-28T11:49:18.529Z,128.89
2023-04-28T11:50:18.490Z,130.56
2023-04-28T11:51:18.497Z,133.43
2023-04-28T11:52:18.499Z,133.21
2023-04-28T11:53:18.486Z,134.24
2023-04-28T11:54:18.504Z,134.43
2023-04-28T11:55:18.507Z,136.70
2023-04-28T11:56:18.496Z,135.83
2023-04-28T11:57:18.453Z,137.56
2023-04-28T11:58:18.444Z,135.93
2023-04-28T11:59:18.430Z,135.76
2023-04-28T12:00:18.426Z,135.53
2023-04-28T12:01:18.428Z,134.13
2023-04-28T12:02:18.447Z,134.70
2023-04-28T12:03:18.551Z,136.52
2023-04-28T12:04:18.481Z,136.65
2023-04-28T12:05:18.440Z,137.37
2023-04-28T12:06:18.435Z,136.86
2023-04-28T12:07:18.398Z,136.93
2023-04-28T12:08:18.403Z,136.91
2023-04-28T12:09:18.400Z,136.64
2023-04-28T12:10:18.358Z,136.78
2023-04-28T12:11:19.949Z,137.87
2023-04-28T12:12:18.902Z,138.27
2023-04-28T12:13:18.344Z,138.93
2023-04-28T12:14:18.333Z,137.76
2023-04-28T12:15:20.107Z,136.58
2023-04-28T12:16:18.581Z,137.54
2023-04-28T12:17:18.462Z,137.74
2023-04-28T12:18:18.468Z,136.04
2023-04-28T12:19:18.435Z,137.76
2023-04-28T12:20:18.441Z,134.58
2023-04-28T12:21:18.498Z,136.68
2023-04-28T12:22:18.456Z,135.95
2023-04-28T12:23:18.449Z,137.07
2023-04-28T12:24:18.469Z,135.44
2023-04-28T12:25:18.459Z,136.13
2023-04-28T12:26:18.469Z,134.93
2023-04-28T12:27:18.455Z,135.47
2023-04-28T12:28:18.488Z,135.12
2023-04-28T12:29:18.438Z,136.52
2023-04-28T12:30:18.478Z,137.55
2023-04-28T12:31:18.559Z,135.78
2023-04-28T12:32:18.448Z,135.57
2023-04-28T12:33:18.462Z,133.41
2023-04-28T12:34:18.468Z,133.98
2023-04-28T12:35:18.464Z,133.31
2023-04-28T12:36:18.429Z,135.16
2023-04-28T12:37:18.440Z,132.44